createdAt,value
2023-04-20T00:00:11.651Z,94.20
2023-04-20T00:02:39.835Z,93.80
2023-04-20T00:05:08.027Z,94.10
2023-04-20T00:07:35.777Z,94.60
2023-04-20T00:10:03.909Z,94.40
2023-04-20T00:12:31.063Z,94.20
2023-04-20T00:14:57.893Z,94.40
2023-04-20T00:17:24.867Z,94.50
2023-04-20T00:19:51.878Z,94.40
2023-04-20T00:22:18.683Z,94.50
2023-04-20T00:24:45.618Z,94.80
2023-04-20T00:27:12.429Z,94.50
2023-04-20T00:29:39.282Z,95.00
2023-04-20T00:32:06.335Z,95.40
2023-04-20T00:34:33.221Z,95.60
2023-04-20T00:37:00.038Z,95.90
2023-04-20T00:39:26.896Z,96.40
2023-04-20T00:41:53.714Z,96.80
2023-04-20T00:44:20.595Z,96.90
2023-04-20T00:49:14.683Z,97.40
2023-04-20T00:51:41.664Z,98.00
2023-04-20T00:54:08.529Z,98.20
2023-04-20T00:56:35.398Z,98.60
2023-04-20T00:59:02.608Z,99.20
2023-04-20T01:01:30.310Z,99.70
2023-04-20T01:03:57.182Z,99.90
2023-04-20T01:06:24.103Z,99.90
2023-04-20T01:08:52.238Z,99.90
2023-04-20T01:11:19.280Z,99.90
2023-04-20T01:13:46.163Z,99.90
2023-04-20T01:16:13.274Z,99.90
2023-04-20T01:18:51.167Z,99.90
2023-04-20T01:21:21.876Z,99.90
2023-04-20T01:23:48.982Z,99.90
2023-04-20T01:26:18.418Z,99.90
2023-04-20T01:28:46.136Z,99.90
2023-04-20T01:31:13.534Z,99.90
2023-04-20T01:33:41.357Z,99.90
2023-04-20T01:36:09.163Z,99.90
2023-04-20T01:38:36.417Z,99.90
2023-04-20T01:41:05.998Z,99.90
2023-04-20T01:43:34.127Z,99.90
2023-04-20T01:46:02.039Z,99.90
2023-04-20T01:48:29.001Z,99.90
2023-04-20T01:50:55.937Z,99.90
2023-04-20T01:53:22.776Z,99.90
2023-04-20T01:55:50.282Z,99.90
2023-04-20T01:58:17.295Z,99.90
2023-04-20T02:00:44.740Z,99.90
2023-04-20T02:03:12.117Z,99.90
2023-04-20T02:05:39.082Z,99.90
2023-04-20T02:08:05.996Z,99.90
2023-04-20T02:10:32.963Z,99.90
2023-04-20T02:12:59.790Z,99.90
2023-04-20T02:15:26.861Z,99.90
2023-04-20T02:17:54.437Z,99.90
2023-04-20T02:20:21.376Z,99.90
2023-04-20T02:22:48.517Z,99.90
2023-04-20T02:25:15.457Z,99.90
2023-04-20T02:27:42.522Z,99.90
2023-04-20T02:30:10.591Z,99.90
2023-04-20T02:32:37.610Z,99.90
2023-04-20T02:35:04.938Z,99.90
2023-04-20T02:37:32.236Z,99.90
2023-04-20T02:39:59.131Z,99.90
2023-04-20T02:42:26.294Z,99.90
2023-04-20T02:44:53.157Z,99.90
2023-04-20T02:47:20.069Z,99.90
2023-04-20T02:49:47.597Z,99.90
2023-04-20T02:52:14.749Z,99.90
2023-04-20T02:54:41.620Z,99.90
2023-04-20T02:57:08.490Z,99.90
2023-04-20T02:59:35.278Z,99.90
2023-04-20T03:02:02.219Z,99.90
2023-04-20T03:04:31.012Z,99.90
2023-04-20T03:09:25.682Z,99.90
2023-04-20T03:11:52.510Z,99.90
2023-04-20T03:14:19.307Z,99.90
2023-04-20T03:16:46.590Z,99.90
2023-04-20T03:19:13.766Z,99.90
2023-04-20T03:21:40.589Z,99.90
2023-04-20T03:24:07.555Z,99.90
2023-04-20T03:26:34.404Z,99.90
2023-04-20T03:29:01.190Z,99.90
2023-04-20T03:31:28.095Z,99.90
2023-04-20T03:33:54.928Z,99.90
2023-04-20T03:36:21.804Z,99.90
2023-04-20T03:38:49.099Z,99.90
2023-04-20T03:41:16.015Z,99.90
2023-04-20T03:43:42.827Z,99.90
2023-04-20T03:46:09.722Z,99.90
2023-04-20T03:48:36.671Z,99.90
2023-04-20T03:51:03.510Z,99.90
2023-04-20T03:53:30.495Z,99.90
2023-04-20T03:55:57.297Z,99.90
2023-04-20T03:58:24.144Z,99.90
2023-04-20T04:00:50.996Z,99.90
2023-04-20T04:03:18.191Z,99.90
2023-04-20T04:05:45.188Z,99.90
2023-04-20T04:10:39.267Z,99.90
2023-04-20T04:13:06.082Z,99.90
2023-04-20T04:15:32.927Z,99.90
2023-04-20T04:17:59.863Z,99.90
2023-04-20T04:20:26.793Z,99.90
2023-04-20T04:22:54.034Z,99.90
2023-04-20T04:25:23.283Z,99.90
2023-04-20T04:27:51.180Z,99.90
2023-04-20T04:30:20.052Z,99.90
2023-04-20T04:32:47.024Z,99.90
2023-04-20T04:35:14.364Z,99.90
2023-04-20T04:37:41.813Z,99.90
2023-04-20T04:40:09.606Z,99.90
2023-04-20T04:42:36.968Z,99.90
2023-04-20T04:45:04.908Z,99.90
2023-04-20T04:47:35.945Z,99.90
2023-04-20T04:50:04.926Z,99.90
2023-04-20T04:52:32.996Z,99.90
2023-04-20T04:55:00.232Z,99.90
2023-04-20T04:57:27.650Z,99.90
2023-04-20T04:59:54.787Z,99.90
2023-04-20T05:02:21.860Z,99.90
2023-04-20T05:04:48.945Z,99.90
2023-04-20T05:07:15.920Z,99.90
2023-04-20T05:09:42.811Z,99.90
2023-04-20T05:12:09.789Z,99.90
2023-04-20T05:14:36.793Z,99.90
2023-04-20T05:17:04.284Z,99.90
2023-04-20T05:19:31.187Z,99.90
2023-04-20T05:21:58.077Z,99.90
2023-04-20T05:24:24.925Z,99.90
2023-04-20T05:26:51.781Z,99.90
2023-04-20T05:29:19.068Z,99.90
2023-04-20T05:31:46.052Z,99.90
2023-04-20T05:34:12.982Z,99.90
2023-04-20T05:36:41.092Z,99.90
2023-04-20T05:39:08.241Z,99.90
2023-04-20T05:41:35.091Z,99.90
2023-04-20T05:44:02.006Z,99.90
2023-04-20T05:46:29.454Z,99.90
2023-04-20T05:48:56.439Z,99.90
2023-04-20T05:51:23.507Z,99.30
2023-04-20T05:53:50.410Z,99.60
2023-04-20T05:56:18.615Z,98.80
2023-04-20T05:58:45.812Z,98.20
2023-04-20T06:01:12.621Z,98.40
2023-04-20T06:03:39.959Z,98.50
2023-04-20T06:06:07.283Z,99.20
2023-04-20T06:08:34.107Z,98.20
2023-04-20T06:11:01.027Z,97.70
2023-04-20T06:13:27.900Z,98.80
2023-04-20T06:15:55.077Z,98.20
2023-04-20T06:18:22.026Z,98.60
2023-04-20T06:20:48.937Z,98.00
2023-04-20T06:23:15.807Z,97.30
2023-04-20T06:25:42.821Z,97.40
2023-04-20T06:28:09.694Z,97.30
2023-04-20T06:30:36.618Z,97.30
2023-04-20T06:33:03.919Z,96.60
2023-04-20T06:35:31.168Z,96.10
2023-04-20T06:37:58.071Z,96.10
2023-04-20T06:40:28.775Z,96.20
2023-04-20T06:42:55.845Z,96.50
2023-04-20T06:45:22.837Z,96.70
2023-04-20T06:47:49.734Z,96.50
2023-04-20T06:50:16.598Z,95.70
2023-04-20T06:52:43.463Z,95.80
2023-04-20T06:55:10.488Z,95.20
2023-04-20T06:57:38.853Z,94.60
2023-04-20T07:00:10.090Z,94.30
2023-04-20T07:02:43.865Z,93.30
2023-04-20T07:05:11.847Z,93.80
2023-04-20T07:07:39.964Z,94.00
2023-04-20T07:10:09.185Z,90.40
2023-04-20T07:12:37.175Z,87.40
2023-04-20T07:15:05.664Z,82.60
2023-04-20T07:17:32.733Z,84.30
2023-04-20T07:20:07.456Z,86.30
2023-04-20T07:22:38.595Z,84.50
2023-04-20T07:25:07.952Z,85.50
2023-04-20T07:27:36.703Z,86.60
2023-04-20T07:30:04.665Z,84.40
2023-04-20T07:32:31.509Z,83.50
2023-04-20T07:34:58.366Z,82.40
2023-04-20T07:37:27.139Z,76.60
2023-04-20T07:39:54.288Z,74.10
2023-04-20T07:42:21.921Z,71.10
2023-04-20T07:44:49.358Z,70.10
2023-04-20T07:47:16.360Z,68.10
2023-04-20T07:49:43.989Z,67.70
2023-04-20T07:52:16.794Z,64.40
2023-04-20T07:54:45.419Z,63.20
2023-04-20T07:57:12.428Z,59.00
2023-04-20T07:59:40.803Z,59.80
2023-04-20T08:02:08.755Z,58.00
2023-04-20T08:04:39.153Z,60.00
2023-04-20T08:07:06.291Z,56.90
2023-04-20T08:09:33.176Z,57.70
2023-04-20T08:12:00.683Z,59.60
2023-04-20T08:14:28.321Z,57.30
2023-04-20T08:16:55.609Z,59.50
2023-04-20T08:19:23.327Z,54.50
2023-04-20T08:21:51.994Z,53.00
2023-04-20T08:24:19.286Z,52.40
2023-04-20T08:26:46.350Z,52.50
2023-04-20T08:29:13.153Z,49.80
2023-04-20T08:31:39.978Z,49.40
2023-04-20T08:34:06.896Z,48.90
2023-04-20T08:36:33.976Z,49.20
2023-04-20T08:39:14.078Z,50.40
2023-04-20T08:41:40.985Z,48.80
2023-04-20T08:44:08.667Z,47.20
2023-04-20T08:46:36.081Z,47.70
2023-04-20T08:49:04.110Z,47.80
2023-04-20T08:51:32.660Z,46.30
2023-04-20T08:54:06.622Z,46.80
2023-04-20T08:56:41.254Z,45.60
2023-04-20T08:59:13.104Z,45.90
2023-04-20T09:01:41.741Z,44.90
2023-04-20T09:04:26.823Z,44.40
2023-04-20T09:06:56.269Z,42.80
2023-04-20T09:09:25.329Z,39.70
2023-04-20T09:12:04.956Z,44.00
2023-04-20T09:14:43.272Z,41.80
2023-04-20T09:17:14.372Z,41.40
2023-04-20T09:19:44.044Z,39.80
2023-04-20T09:22:10.944Z,37.30
2023-04-20T09:24:39.865Z,39.10
2023-04-20T09:27:17.200Z,42.80
2023-04-20T09:29:44.762Z,41.70
2023-04-20T09:32:24.712Z,38.70
2023-04-20T09:34:51.704Z,37.30
2023-04-20T09:37:18.672Z,37.40
2023-04-20T09:39:46.504Z,37.90
2023-04-20T09:42:14.885Z,37.10
2023-04-20T09:44:43.275Z,37.40
2023-04-20T09:47:16.573Z,36.80
2023-04-20T09:49:46.893Z,33.20
2023-04-20T09:52:18.128Z,31.30
2023-04-20T09:54:45.559Z,31.00
2023-04-20T09:57:14.018Z,30.90
2023-04-20T09:59:46.388Z,31.90
2023-04-20T10:02:14.412Z,32.50
2023-04-20T10:04:58.036Z,30.20
2023-04-20T10:07:31.730Z,31.20
2023-04-20T10:10:10.455Z,27.10
2023-04-20T10:12:51.435Z,27.00
2023-04-20T10:15:18.900Z,26.20
2023-04-20T10:17:46.215Z,26.80
2023-04-20T10:20:20.390Z,26.80
2023-04-20T10:22:47.311Z,26.80
2023-04-20T10:25:23.287Z,26.80
2023-04-20T10:28:06.346Z,26.70
2023-04-20T10:30:34.216Z,25.60
2023-04-20T10:33:09.980Z,27.30
2023-04-20T10:35:55.435Z,28.00
2023-04-20T10:38:33.874Z,27.40
2023-04-20T10:41:12.270Z,28.40
2023-04-20T10:43:42.303Z,28.90
2023-04-20T10:46:19.329Z,28.90
2023-04-20T10:49:01.816Z,26.60
2023-04-20T10:51:29.107Z,24.90
2023-04-20T10:56:42.209Z,23.90
2023-04-20T10:59:14.089Z,23.10
2023-04-20T11:01:41.643Z,22.90
2023-04-20T11:04:10.666Z,22.00
2023-04-20T11:06:39.637Z,22.10
2023-04-20T11:09:28.394Z,21.20
2023-04-20T11:12:04.070Z,21.30
2023-04-20T11:14:36.000Z,21.40
2023-04-20T11:17:03.081Z,22.10
2023-04-20T11:19:35.568Z,23.40
2023-04-20T11:22:04.220Z,22.50
2023-04-20T11:24:33.741Z,21.90
2023-04-20T11:27:02.317Z,22.50
2023-04-20T11:29:39.484Z,21.60
2023-04-20T11:32:09.044Z,21.90
2023-04-20T11:34:37.415Z,22.30
2023-04-20T11:37:10.526Z,23.00
2023-04-20T11:39:38.235Z,22.60
2023-04-20T11:42:05.822Z,23.70
2023-04-20T11:44:33.126Z,23.10
2023-04-20T11:47:00.119Z,22.00
2023-04-20T11:49:28.955Z,22.20
2023-04-20T11:51:56.133Z,23.50
2023-04-20T11:54:24.135Z,22.30
2023-04-20T11:56:51.789Z,23.10
2023-04-20T11:59:20.622Z,23.30
2023-04-20T12:01:48.301Z,24.40
2023-04-20T12:04:16.369Z,25.30
2023-04-20T12:06:44.057Z,25.70
2023-04-20T12:09:11.059Z,26.20
2023-04-20T12:11:37.983Z,26.80
2023-04-20T12:14:05.220Z,25.00
2023-04-20T12:16:32.277Z,25.40
2023-04-20T12:18:59.396Z,24.10
2023-04-20T12:21:27.370Z,24.90
2023-04-20T12:23:54.297Z,24.00
2023-04-20T12:26:22.625Z,23.30
2023-04-20T12:31:19.701Z,23.20
2023-04-20T12:33:47.181Z,23.50
2023-04-20T12:36:13.974Z,23.40
2023-04-20T12:38:40.793Z,23.10
2023-04-20T12:41:08.035Z,22.50
2023-04-20T12:43:34.883Z,24.40
2023-04-20T12:46:01.746Z,24.30
2023-04-20T12:48:28.615Z,25.70
2023-04-20T12:50:55.500Z,27.80
2023-04-20T12:53:22.429Z,25.10
2023-04-20T12:55:55.077Z,25.20
2023-04-20T12:58:27.408Z,24.20
2023-04-20T13:00:54.420Z,23.00
2023-04-20T13:03:21.484Z,22.70
2023-04-20T13:05:48.490Z,22.60
2023-04-20T13:08:15.506Z,23.00
2023-04-20T13:10:45.899Z,24.30
2023-04-20T13:13:12.707Z,24.00
2023-04-20T13:15:39.977Z,24.20
2023-04-20T13:18:07.453Z,23.30
2023-04-20T13:20:34.304Z,23.10
2023-04-20T13:23:01.742Z,23.90
2023-04-20T13:25:30.194Z,24.00
2023-04-20T13:27:57.769Z,24.20
2023-04-20T13:30:24.929Z,24.90
2023-04-20T13:32:52.297Z,27.80
2023-04-20T13:35:19.275Z,26.60
2023-04-20T13:37:46.393Z,25.10
2023-04-20T13:42:40.927Z,23.90
2023-04-20T13:45:08.769Z,23.80
2023-04-20T13:47:35.668Z,23.30
2023-04-20T13:50:03.669Z,23.60
2023-04-20T13:54:58.695Z,23.60
2023-04-20T13:57:25.659Z,23.70
2023-04-20T13:59:53.158Z,24.50
2023-04-20T14:02:20.115Z,23.00
2023-04-20T14:04:47.100Z,23.60
2023-04-20T14:07:14.020Z,24.00
2023-04-20T14:09:40.807Z,23.80
2023-04-20T14:12:07.722Z,24.20
2023-04-20T14:14:34.900Z,24.00
2023-04-20T14:17:02.158Z,25.10
2023-04-20T14:19:29.005Z,24.90
2023-04-20T14:21:55.924Z,24.90
2023-04-20T14:24:22.733Z,24.80
2023-04-20T14:26:51.617Z,26.00
2023-04-20T14:29:18.430Z,26.50
2023-04-20T14:31:45.374Z,27.10
2023-04-20T14:36:40.210Z,26.80
2023-04-20T14:41:34.675Z,27.10
2023-04-20T14:44:01.678Z,27.50
2023-04-20T14:46:28.690Z,28.20
2023-04-20T14:48:55.576Z,27.80
2023-04-20T14:51:22.412Z,27.60
2023-04-20T14:53:49.199Z,28.10
2023-04-20T14:56:16.250Z,28.00
2023-04-20T14:58:43.063Z,28.30
2023-04-20T15:01:09.974Z,28.80
2023-04-20T15:03:37.217Z,28.80
2023-04-20T15:06:04.182Z,29.00
2023-04-20T15:08:30.977Z,29.10
2023-04-20T15:10:57.974Z,29.40
2023-04-20T15:13:25.454Z,28.90
2023-04-20T15:15:54.842Z,29.50
2023-04-20T15:18:22.436Z,29.60
2023-04-20T15:20:51.806Z,29.80
2023-04-20T15:23:18.748Z,29.70
2023-04-20T15:25:45.773Z,29.80
2023-04-20T15:30:40.368Z,30.30
2023-04-20T15:33:07.529Z,31.10
2023-04-20T15:35:35.366Z,29.90
2023-04-20T15:38:03.091Z,29.90
2023-04-20T15:40:30.073Z,30.60
2023-04-20T15:42:56.942Z,31.40
2023-04-20T15:47:51.763Z,31.70
2023-04-20T15:50:18.747Z,32.00
2023-04-20T15:52:49.589Z,32.50
2023-04-20T15:57:44.648Z,32.10
2023-04-20T16:00:12.497Z,33.00
2023-04-20T16:05:07.832Z,32.40
2023-04-20T16:12:30.190Z,32.60
2023-04-20T16:14:57.451Z,33.00
2023-04-20T16:17:24.548Z,33.20
2023-04-20T16:22:18.890Z,33.00
2023-04-20T16:27:13.380Z,33.20
2023-04-20T16:32:07.468Z,33.50
2023-04-20T16:39:28.876Z,34.40
2023-04-20T16:44:24.154Z,34.10
2023-04-20T16:46:51.537Z,34.30
2023-04-20T16:51:45.866Z,35.00
2023-04-20T16:56:40.767Z,35.40
2023-04-20T16:59:08.083Z,35.10
2023-04-20T17:01:35.238Z,35.00
2023-04-20T17:06:29.745Z,35.20
2023-04-20T17:09:01.412Z,35.60
2023-04-20T17:13:55.627Z,36.90
2023-04-20T17:16:22.574Z,36.60
2023-04-20T17:18:49.419Z,35.90
2023-04-20T17:21:16.328Z,36.40
2023-04-20T17:26:10.461Z,36.60
2023-04-20T17:33:32.254Z,36.90
2023-04-20T17:43:21.779Z,37.40
2023-04-20T17:45:51.652Z,37.40
2023-04-20T17:48:18.611Z,37.70
2023-04-20T17:50:54.610Z,37.80
2023-04-20T17:53:22.256Z,38.00
2023-04-20T17:58:17.667Z,38.00
2023-04-20T18:00:44.985Z,38.30
2023-04-20T18:05:42.631Z,37.70
2023-04-20T18:08:10.347Z,38.30
2023-04-20T18:10:37.719Z,38.20
2023-04-20T18:13:05.467Z,38.70
2023-04-20T18:17:59.764Z,39.00
2023-04-20T18:22:54.097Z,39.00
2023-04-20T18:25:20.962Z,39.20
2023-04-20T18:35:11.046Z,39.50
2023-04-20T18:40:07.332Z,39.60
2023-04-20T18:45:01.778Z,40.30
2023-04-20T18:47:29.644Z,40.40
2023-04-20T18:49:56.576Z,40.30
2023-04-20T18:57:21.627Z,41.20
2023-04-20T18:59:48.417Z,41.20
2023-04-20T19:02:15.629Z,41.00
2023-04-20T19:04:42.729Z,41.10
2023-04-20T19:07:10.034Z,41.40
2023-04-20T19:09:37.751Z,41.00
2023-04-20T19:12:05.709Z,41.30
2023-04-20T19:14:32.584Z,41.30
2023-04-20T19:17:02.015Z,41.50
2023-04-20T19:21:59.014Z,41.40
2023-04-20T19:29:20.561Z,41.50
2023-04-20T19:36:42.335Z,41.60
2023-04-20T19:39:09.887Z,41.80
2023-04-20T19:41:37.097Z,42.00
2023-04-20T19:46:38.728Z,41.40
2023-04-20T19:49:05.805Z,41.30
2023-04-20T19:51:33.168Z,41.50
2023-04-20T19:54:01.740Z,41.70
2023-04-20T19:56:28.783Z,42.00
2023-04-20T19:58:55.625Z,42.20
2023-04-20T20:06:17.352Z,42.50
2023-04-20T20:11:12.064Z,42.60
2023-04-20T20:23:28.095Z,43.60
2023-04-20T20:30:49.443Z,43.50
2023-04-20T20:40:39.860Z,44.00
2023-04-20T20:45:34.067Z,45.20
2023-04-20T20:48:01.097Z,44.70
2023-04-20T20:50:28.192Z,45.50
2023-04-20T21:00:17.424Z,46.10
2023-04-20T21:02:44.793Z,45.80
2023-04-20T21:05:11.810Z,46.30
2023-04-20T21:10:06.614Z,45.30
2023-04-20T21:12:33.449Z,46.20
2023-04-20T21:15:00.672Z,47.70
2023-04-20T21:19:54.837Z,47.60
2023-04-20T21:32:11.684Z,49.10
2023-04-20T21:34:38.551Z,50.20
2023-04-20T21:37:05.815Z,48.20
2023-04-20T21:39:33.034Z,48.20
2023-04-20T21:42:00.035Z,47.80
2023-04-20T21:46:54.390Z,49.60
2023-04-20T21:49:21.634Z,49.30
2023-04-20T21:54:16.098Z,50.90
2023-04-20T21:56:43.046Z,51.10
2023-04-20T22:04:04.929Z,52.20
2023-04-20T22:06:34.974Z,52.60
2023-04-20T22:09:02.200Z,52.30
2023-04-20T22:14:00.686Z,52.30
2023-04-20T22:23:50.411Z,51.70
2023-04-20T22:26:17.347Z,52.80
2023-04-20T22:28:44.241Z,53.30
2023-04-20T22:31:11.080Z,51.30
2023-04-20T22:36:06.050Z,54.00
2023-04-20T22:38:35.783Z,52.60
2023-04-20T22:41:02.941Z,54.60
2023-04-20T22:45:57.219Z,55.70
2023-04-20T22:48:24.073Z,56.30
2023-04-20T22:55:46.015Z,57.70
2023-04-20T22:58:12.962Z,57.30
2023-04-20T23:12:57.135Z,58.40
2023-04-20T23:17:51.250Z,58.50
2023-04-20T23:20:18.578Z,59.00
2023-04-20T23:22:45.537Z,57.00
2023-04-20T23:25:12.416Z,58.80
2023-04-20T23:30:07.367Z,59.60
2023-04-20T23:32:34.228Z,58.80
2023-04-20T23:37:28.371Z,60.00
2023-04-20T23:42:22.477Z,58.60
2023-04-20T23:49:44.529Z,60.00
2023-04-20T23:52:11.343Z,58.00
2023-04-20T23:57:05.402Z,59.50
2023-04-20T23:59:33.646Z,59.40
